Time,TemperatureF,DewpointF,PressureIn,WindDirection,WindDirectionDegrees,WindSpeedMPH,WindSpeedGustMPH,Humidity,HourlyPrecipIn,Conditions,Clouds,dailyrainin,SoftwareType,DateUTC
2014-02-04 05:26:00,6.4,-99.9,30.27,North,-999,0.0,0.0,-999,0.00,,,-99.99,FreeWX 2.04,2014-02-04 10:26:00,
2014-02-04 06:48:00,7.2,-99.9,30.27,North,-999,0.0,0.0,-999,0.00,,,-99.99,FreeWX 2.04,2014-02-04 11:48:00,
2014-02-04 07:04:00,7.5,-99.9,30.27,North,-999,0.0,0.0,-999,0.00,,,-99.99,FreeWX 2.04,2014-02-04 12:04:00,
2014-02-04 07:09:00,7.5,-99.9,30.27,North,-999,0.0,0.0,-999,0.00,,,-99.99,FreeWX 2.04,2014-02-04 12:09:00,
2014-02-04 07:14:00,7.7,-99.9,30.27,North,-999,0.0,0.0,-999,0.00,,,-99.99,FreeWX 2.04,2014-02-04 12:14:00,
2014-02-04 07:19:00,7.7,-99.9,30.27,North,-999,0.0,3.6,-999,0.00,,,-99.99,FreeWX 2.04,2014-02-04 12:19:00,
2014-02-04 07:24:00,7.5,-99.9,30.27,North,-999,0.0,3.1,-999,0.00,,,-99.99,FreeWX 2.04,2014-02-04 12:24:00,
2014-02-04 07:29:00,7.5,-99.9,30.27,North,-999,0.0,0.0,-999,0.00,,,-99.99,FreeWX 2.04,2014-02-04 12:29:00,
2014-02-04 07:34:00,7.5,-99.9,30.27,North,-999,0.0,4.0,-999,0.00,,,-99.99,FreeWX 2.04,2014-02-04 12:34:00,
2014-02-04 07:39:00,7.5,-99.9,30.27,North,-999,0.0,3.6,-999,0.00,,,-99.99,FreeWX 2.04,2014-02-04 12:39:00,
2014-02-04 07:44:00,7.3,-99.9,30.27,North,-999,0.0,3.6,-999,0.00,,,-99.99,FreeWX 2.04,2014-02-04 12:44:00,
2014-02-04 07:49:00,7.2,-99.9,30.27,West,277,1.0,4.0,-999,0.00,,,-99.99,FreeWX 2.04,2014-02-04 12:49:00,
2014-02-04 07:54:00,7.0,-99.9,30.27,North,-999,0.0,4.0,-999,0.04,,,-99.99,FreeWX 2.04,2014-02-04 12:54:00,
2014-02-04 07:59:00,7.0,-99.9,30.27,West,277,1.0,4.0,-999,0.04,,,-99.99,FreeWX 2.04,2014-02-04 12:59:00,
2014-02-04 08:04:00,6.8,-99.9,30.27,North,-999,0.0,0.0,-999,0.04,,,-99.99,FreeWX 2.04,2014-02-04 13:04:00,
2014-02-04 08:09:00,6.8,-99.9,30.27,North,-999,0.0,3.6,-999,0.04,,,-99.99,FreeWX 2.04,2014-02-04 13:09:00,
2014-02-04 08:14:00,6.8,-99.9,30.27,North,-999,0.0,0.0,-999,0.04,,,-99.99,FreeWX 2.04,2014-02-04 13:14:00,
2014-02-04 08:19:00,6.8,-99.9,30.27,North,-999,0.0,3.6,-999,0.04,,,-99.99,FreeWX 2.04,2014-02-04 13:19:00,
2014-02-04 08:24:00,7.0,-99.9,30.27,West,277,1.0,4.0,-999,0.04,,,-99.99,FreeWX 2.04,2014-02-04 13:24:00,
2014-02-04 08:29:00,7.2,-99.9,30.30,North,-999,0.0,4.0,-999,0.04,,,-99.99,FreeWX 2.04,2014-02-04 13:29:00,
2014-02-04 08:34:00,7.3,-99.9,30.30,North,-999,0.0,3.6,-999,0.04,,,-99.99,FreeWX 2.04,2014-02-04 13:34:00,
2014-02-04 08:39:00,7.9,-99.9,30.30,West,278,1.0,4.0,-999,0.04,,,-99.99,FreeWX 2.04,2014-02-04 13:39:00,
2014-02-04 08:44:00,8.4,-99.9,30.30,West,278,2.0,4.0,-999,0.04,,,-99.99,FreeWX 2.04,2014-02-04 13:44:00,
2014-02-04 08:49:00,9.1,-99.9,30.30,West,278,2.0,4.0,-999,0.04,,,-99.99,FreeWX 2.04,2014-02-04 13:49:00,
2014-02-04 08:54:00,9.5,-99.9,30.30,West,275,2.0,4.5,-999,0.00,,,-99.99,FreeWX 2.04,2014-02-04 13:54:00,
2014-02-04 08:59:00,10.0,-99.9,30.30,West,271,2.0,4.5,-999,0.00,,,-99.99,FreeWX 2.04,2014-02-04 13:59:00,
2014-02-04 09:04:00,10.4,-99.9,30.30,West,270,2.0,4.0,-999,0.00,,,-99.99,FreeWX 2.04,2014-02-04 14:04:00,
2014-02-04 09:09:00,10.4,-99.9,30.30,West,271,1.0,3.6,-999,0.00,,,-99.99,FreeWX 2.04,2014-02-04 14:09:00,
2014-02-04 09:14:00,10.6,-99.9,30.30,West,274,1.0,4.9,-999,0.00,,,-99.99,FreeWX 2.04,2014-02-04 14:14:00,
2014-02-04 09:19:00,10.8,-99.9,30.30,West,273,3.0,4.5,-999,0.00,,,-99.99,FreeWX 2.04,2014-02-04 14:19:00,
2014-02-04 09:24:00,10.9,-99.9,30.30,West,269,3.0,4.5,-999,0.00,,,-99.99,FreeWX 2.04,2014-02-04 14:24:00,
2014-02-04 09:29:00,11.1,-99.9,30.30,West,270,2.0,4.5,-999,0.00,,,-99.99,FreeWX 2.04,2014-02-04 14:29:00,
2014-02-04 09:34:00,11.7,-99.9,30.30,West,267,2.0,4.5,-999,0.00,,,-99.99,FreeWX 2.04,2014-02-04 14:34:00,
2014-02-04 09:39:00,12.2,-99.9,30.30,West,263,3.0,4.9,-999,0.00,,,-99.99,FreeWX 2.04,2014-02-04 14:39:00,
2014-02-04 09:44:00,13.1,-99.9,30.30,West,267,2.0,4.5,-999,0.00,,,-99.99,FreeWX 2.04,2014-02-04 14:44:00,
2014-02-04 09:49:00,13.6,-99.9,30.30,West,267,2.0,4.0,-999,0.00,,,-99.99,FreeWX 2.04,2014-02-04 14:49:00,
2014-02-04 09:59:00,15.4,1.8,30.30,West,268,3.0,5.8,54,0.00,,,-99.99,FreeWX 2.04,2014-02-04 14:59:00,
2014-02-04 10:04:00,16.2,2.5,30.30,West,276,3.0,5.4,54,0.00,,,-99.99,FreeWX 2.04,2014-02-04 15:04:00,
2014-02-04 10:09:00,17.2,3.6,30.30,West,271,2.0,4.5,54,0.00,,,-99.99,FreeWX 2.04,2014-02-04 15:09:00,
2014-02-04 10:14:00,18.0,4.1,30.30,West,266,2.0,4.9,54,0.00,,,-99.99,FreeWX 2.04,2014-02-04 15:14:00,
2014-02-04 10:19:00,18.5,4.3,30.30,West,271,2.0,5.4,53,0.00,,,-99.99,FreeWX 2.04,2014-02-04 15:19:00,
2014-02-04 10:24:00,19.0,4.8,30.30,West,269,3.0,6.7,53,0.00,,,-99.99,FreeWX 2.04,2014-02-04 15:24:00,
2014-02-04 10:29:00,19.6,4.8,30.30,West,264,2.0,4.9,52,0.00,,,-99.99,FreeWX 2.04,2014-02-04 15:29:00,
2014-02-04 10:34:00,19.9,4.8,30.30,West,276,2.0,4.9,51,0.00,,,-99.99,FreeWX 2.04,2014-02-04 15:34:00,
2014-02-04 10:39:00,20.3,4.3,30.30,WNW,286,2.0,4.5,49,0.00,,,-99.99,FreeWX 2.04,2014-02-04 15:39:00,
2014-02-04 10:44:00,20.8,4.6,30.30,West,279,2.0,5.4,49,0.00,,,-99.99,FreeWX 2.04,2014-02-04 15:44:00,
2014-02-04 10:49:00,21.2,4.6,30.30,West,273,1.0,4.5,48,0.00,,,-99.99,FreeWX 2.04,2014-02-04 15:49:00,
2014-02-04 10:54:00,21.4,3.4,30.30,West,276,1.0,4.0,45,0.00,,,-99.99,FreeWX 2.04,2014-02-04 15:54:00,
2014-02-04 10:59:00,21.9,3.4,30.30,NW,309,1.0,4.0,44,0.00,,,-99.99,FreeWX 2.04,2014-02-04 15:59:00,
2014-02-04 11:04:00,22.8,4.3,30.30,WNW,297,1.0,5.4,44,0.00,,,-99.99,FreeWX 2.04,2014-02-04 16:04:00,
2014-02-04 11:09:00,23.7,5.0,30.30,West,261,2.0,6.9,44,0.00,,,-99.99,FreeWX 2.04,2014-02-04 16:09:00,
2014-02-04 11:19:00,24.1,3.7,30.30,NW,309,1.0,4.0,41,0.00,,,-99.99,FreeWX 2.04,2014-02-04 16:19:00,
2014-02-04 11:24:00,24.6,4.8,30.30,North,-999,0.0,4.9,42,0.00,,,-99.99,FreeWX 2.04,2014-02-04 16:24:00,
2014-02-04 11:29:00,25.2,5.4,30.30,West,271,1.0,5.8,42,0.00,,,-99.99,FreeWX 2.04,2014-02-04 16:29:00,
2014-02-04 11:34:00,25.7,5.9,30.30,North,-999,0.0,3.1,42,0.00,,,-99.99,FreeWX 2.04,2014-02-04 16:34:00,
2014-02-04 11:39:00,26.1,4.5,30.30,North,-999,0.0,0.0,39,0.00,,,-99.99,FreeWX 2.04,2014-02-04 16:39:00,
2014-02-04 11:44:00,26.6,3.9,30.30,North,-999,0.0,4.5,37,0.00,,,-99.99,FreeWX 2.04,2014-02-04 16:44:00,
2014-02-04 11:49:00,27.1,4.3,30.30,NNW,327,2.0,5.8,37,0.00,,,-99.99,FreeWX 2.04,2014-02-04 16:49:00,
2014-02-04 11:54:00,28.2,6.4,30.30,NE,38,2.0,4.5,39,0.00,,,-99.99,FreeWX 2.04,2014-02-04 16:54:00,
2014-02-04 11:59:00,29.7,6.6,30.30,ENE,63,1.0,4.9,37,0.00,,,-99.99,FreeWX 2.04,2014-02-04 16:59:00,
2014-02-04 12:04:00,30.7,7.5,30.30,North,-999,0.0,5.4,37,0.00,,,-99.99,FreeWX 2.04,2014-02-04 17:04:00,
2014-02-04 12:09:00,31.6,8.4,30.30,North,-999,0.0,4.0,37,0.00,,,-99.99,FreeWX 2.04,2014-02-04 17:09:00,
2014-02-04 12:14:00,32.7,9.9,30.27,North,-999,0.0,3.1,38,0.00,,,-99.99,FreeWX 2.04,2014-02-04 17:14:00,
2014-02-04 12:19:00,32.5,7.9,30.27,North,-999,0.0,4.9,35,0.00,,,-99.99,FreeWX 2.04,2014-02-04 17:19:00,
2014-02-04 12:24:00,33.6,9.5,30.27,North,-999,0.0,3.6,36,0.00,,,-99.99,FreeWX 2.04,2014-02-04 17:24:00,
2014-02-04 12:29:00,33.6,8.2,30.27,North,-999,0.0,2.7,34,0.00,,,-99.99,FreeWX 2.04,2014-02-04 17:29:00,
2014-02-04 12:34:00,32.5,6.1,30.27,North,-999,0.0,4.0,32,0.00,,,-99.99,FreeWX 2.04,2014-02-04 17:34:00,
2014-02-04 12:39:00,31.3,4.3,30.27,North,-999,0.0,4.9,31,0.00,,,-99.99,FreeWX 2.04,2014-02-04 17:39:00,
2014-02-04 12:44:00,30.6,4.3,30.27,East,87,1.0,5.8,32,0.00,,,-99.99,FreeWX 2.04,2014-02-04 17:44:00,
2014-02-04 12:49:00,30.4,4.1,30.27,North,-999,0.0,4.0,32,0.00,,,-99.99,FreeWX 2.04,2014-02-04 17:49:00,
2014-02-04 12:54:00,29.7,2.8,30.27,North,-999,0.0,3.1,31,0.00,,,-99.99,FreeWX 2.04,2014-02-04 17:54:00,
2014-02-04 12:59:00,30.2,3.9,30.27,North,-999,0.0,3.1,32,0.00,,,-99.99,FreeWX 2.04,2014-02-04 17:59:00,
2014-02-04 13:04:00,30.9,4.6,30.27,North,-999,0.0,3.6,32,0.00,,,-99.99,FreeWX 2.04,2014-02-04 18:04:00,
2014-02-04 13:09:00,31.3,4.3,30.27,North,-999,0.0,4.5,31,0.00,,,-99.99,FreeWX 2.04,2014-02-04 18:09:00,
2014-02-04 13:14:00,30.9,4.6,30.24,ESE,110,1.0,4.9,32,0.00,,,-99.99,FreeWX 2.04,2014-02-04 18:14:00,
2014-02-04 13:19:00,31.3,4.3,30.24,North,-999,0.0,3.1,31,0.00,,,-99.99,FreeWX 2.04,2014-02-04 18:19:00,
2014-02-04 13:24:00,32.2,5.0,30.24,North,-999,0.0,0.0,31,0.00,,,-99.99,FreeWX 2.04,2014-02-04 18:24:00,
2014-02-04 13:29:00,32.2,5.0,30.24,North,-999,0.0,3.1,31,0.00,,,-99.99,FreeWX 2.04,2014-02-04 18:29:00,
2014-02-04 13:34:00,32.2,5.0,30.24,North,-999,0.0,3.6,31,0.00,,,-99.99,FreeWX 2.04,2014-02-04 18:34:00,
2014-02-04 13:39:00,32.2,5.0,30.24,North,-999,0.0,0.0,31,0.00,,,-99.99,FreeWX 2.04,2014-02-04 18:39:00,
2014-02-04 13:44:00,32.4,5.9,30.27,North,-999,0.0,0.0,32,0.00,,,-99.99,FreeWX 2.04,2014-02-04 18:44:00,
2014-02-04 13:49:00,32.5,6.1,30.27,North,-999,0.0,0.0,32,0.00,,,-99.99,FreeWX 2.04,2014-02-04 18:49:00,
2014-02-04 13:54:00,31.8,4.6,30.27,North,-999,0.0,4.0,31,0.00,,,-99.99,FreeWX 2.04,2014-02-04 18:54:00,
2014-02-04 13:59:00,30.6,3.6,30.27,North,-999,0.0,4.0,31,0.00,,,-99.99,FreeWX 2.04,2014-02-04 18:59:00,
2014-02-04 14:04:00,30.9,4.6,30.27,North,-999,0.0,0.0,32,0.00,,,-99.99,FreeWX 2.04,2014-02-04 19:04:00,
2014-02-04 14:09:00,30.2,3.2,30.27,North,-999,0.0,4.5,31,0.00,,,-99.99,FreeWX 2.04,2014-02-04 19:09:00,
2014-02-04 14:14:00,30.4,4.1,30.24,North,-999,0.0,3.6,32,0.00,,,-99.99,FreeWX 2.04,2014-02-04 19:14:00,
2014-02-04 14:24:00,29.5,2.7,30.24,North,-999,0.0,3.6,31,0.00,,,-99.99,FreeWX 2.04,2014-02-04 19:24:00,
2014-02-04 14:29:00,29.1,3.0,30.24,North,-999,0.0,0.0,32,0.00,,,-99.99,FreeWX 2.04,2014-02-04 19:29:00,
2014-02-04 14:34:00,28.9,2.8,30.24,North,-999,0.0,0.0,32,0.00,,,-99.99,FreeWX 2.04,2014-02-04 19:34:00,
2014-02-04 14:39:00,29.1,3.0,30.24,North,-999,0.0,4.0,32,0.00,,,-99.99,FreeWX 2.04,2014-02-04 19:39:00,
2014-02-04 14:44:00,28.4,2.3,30.24,North,-999,0.0,4.0,32,0.00,,,-99.99,FreeWX 2.04,2014-02-04 19:44:00,
2014-02-04 14:49:00,28.0,2.1,30.24,North,-999,0.0,3.1,32,0.00,,,-99.99,FreeWX 2.04,2014-02-04 19:49:00,
2014-02-04 14:54:00,28.0,2.1,30.24,North,-999,0.0,0.0,32,0.00,,,-99.99,FreeWX 2.04,2014-02-04 19:54:00,
2014-02-04 14:59:00,28.0,2.1,30.24,North,-999,0.0,3.1,32,0.00,,,-99.99,FreeWX 2.04,2014-02-04 19:59:00,
2014-02-04 15:04:00,28.0,2.1,30.24,North,-999,0.0,3.6,32,0.00,,,-99.99,FreeWX 2.04,2014-02-04 20:04:00,
2014-02-04 15:09:00,27.7,1.8,30.24,North,-999,0.0,4.0,32,0.00,,,-99.99,FreeWX 2.04,2014-02-04 20:09:00,
2014-02-04 15:14:00,27.5,2.3,30.24,North,-999,0.0,0.0,33,0.00,,,-99.99,FreeWX 2.04,2014-02-04 20:14:00,
2014-02-04 15:19:00,27.3,2.1,30.24,North,-999,0.0,4.0,33,0.00,,,-99.99,FreeWX 2.04,2014-02-04 20:19:00,
2014-02-04 15:24:00,27.0,1.8,30.24,North,-999,0.0,4.9,33,0.00,,,-99.99,FreeWX 2.04,2014-02-04 20:24:00,
2014-02-04 15:29:00,26.6,1.4,30.24,North,-999,0.0,2.7,33,0.00,,,-99.99,FreeWX 2.04,2014-02-04 20:29:00,
2014-02-04 15:34:00,26.6,1.4,30.24,North,-999,0.0,3.1,33,0.00,,,-99.99,FreeWX 2.04,2014-02-04 20:34:00,
2014-02-04 15:39:00,26.2,1.0,30.24,North,-999,0.0,3.6,33,0.00,,,-99.99,FreeWX 2.04,2014-02-04 20:39:00,
2014-02-04 15:44:00,25.7,0.7,30.24,North,-999,0.0,3.1,33,0.00,,,-99.99,FreeWX 2.04,2014-02-04 20:44:00,
2014-02-04 15:49:00,25.5,1.0,30.24,North,-999,0.0,4.0,34,0.00,,,-99.99,FreeWX 2.04,2014-02-04 20:49:00,
2014-02-04 15:54:00,25.2,0.9,30.24,North,-999,0.0,0.0,34,0.00,,,-99.99,FreeWX 2.04,2014-02-04 20:54:00,
2014-02-04 15:59:00,25.0,1.2,30.24,North,-999,0.0,4.0,35,0.00,,,-99.99,FreeWX 2.04,2014-02-04 20:59:00,
2014-02-04 16:04:00,24.8,1.0,30.24,North,-999,0.0,4.5,35,0.00,,,-99.99,FreeWX 2.04,2014-02-04 21:04:00,
2014-02-04 16:09:00,24.6,1.6,30.24,North,-999,0.0,4.0,36,0.00,,,-99.99,FreeWX 2.04,2014-02-04 21:09:00,
2014-02-04 16:14:00,24.4,1.4,30.24,North,-999,0.0,4.0,36,0.00,,,-99.99,FreeWX 2.04,2014-02-04 21:14:00,
2014-02-04 16:19:00,24.4,1.4,30.24,North,-999,0.0,4.0,36,0.00,,,-99.99,FreeWX 2.04,2014-02-04 21:19:00,
2014-02-04 16:24:00,24.4,1.4,30.24,North,-999,0.0,3.1,36,0.00,,,-99.99,FreeWX 2.04,2014-02-04 21:24:00,
2014-02-04 16:29:00,24.3,1.8,30.24,North,-999,0.0,3.6,37,0.00,,,-99.99,FreeWX 2.04,2014-02-04 21:29:00,
2014-02-04 16:34:00,24.3,1.8,30.24,North,-999,0.0,0.0,37,0.00,,,-99.99,FreeWX 2.04,2014-02-04 21:34:00,
2014-02-04 16:39:00,24.1,1.6,30.24,North,-999,0.0,0.0,37,0.00,,,-99.99,FreeWX 2.04,2014-02-04 21:39:00,
2014-02-04 16:44:00,23.9,1.4,30.24,North,-999,0.0,0.0,37,0.00,,,-99.99,FreeWX 2.04,2014-02-04 21:44:00,
2014-02-04 16:49:00,23.7,1.9,30.24,North,-999,0.0,0.0,38,0.00,,,-99.99,FreeWX 2.04,2014-02-04 21:49:00,
2014-02-04 16:54:00,23.5,1.8,30.24,North,-999,0.0,0.0,38,0.00,,,-99.99,FreeWX 2.04,2014-02-04 21:54:00,
2014-02-04 16:59:00,23.2,1.4,30.24,North,-999,0.0,3.6,38,0.00,,,-99.99,FreeWX 2.04,2014-02-04 21:59:00,
2014-02-04 17:04:00,23.0,1.2,30.24,North,-999,0.0,4.5,38,0.00,,,-99.99,FreeWX 2.04,2014-02-04 22:04:00,
2014-02-04 17:09:00,22.8,1.0,30.24,North,-999,0.0,4.0,38,0.00,,,-99.99,FreeWX 2.04,2014-02-04 22:09:00,
2014-02-04 17:14:00,22.6,0.9,30.24,North,-999,0.0,2.7,38,0.00,,,-99.99,FreeWX 2.04,2014-02-04 22:14:00,
2014-02-04 17:19:00,22.5,0.7,30.24,North,-999,0.0,0.0,38,0.00,,,-99.99,FreeWX 2.04,2014-02-04 22:19:00,
2014-02-04 17:24:00,22.3,0.5,30.24,North,-999,0.0,3.6,38,0.00,,,-99.99,FreeWX 2.04,2014-02-04 22:24:00,
2014-02-04 17:29:00,22.1,1.0,30.24,North,-999,0.0,0.0,39,0.00,,,-99.99,FreeWX 2.04,2014-02-04 22:29:00,
2014-02-04 17:34:00,21.9,0.9,30.24,North,-999,0.0,0.0,39,0.00,,,-99.99,FreeWX 2.04,2014-02-04 22:34:00,
2014-02-04 17:39:00,21.7,0.7,30.24,North,-999,0.0,0.0,39,0.00,,,-99.99,FreeWX 2.04,2014-02-04 22:39:00,
2014-02-04 17:44:00,21.6,1.0,30.24,North,-999,0.0,4.9,40,0.00,,,-99.99,FreeWX 2.04,2014-02-04 22:44:00,
2014-02-04 17:49:00,21.6,1.6,30.24,NNE,32,1.0,4.5,41,0.00,,,-99.99,FreeWX 2.04,2014-02-04 22:49:00,
2014-02-04 17:54:00,21.6,1.6,30.24,North,-999,0.0,0.0,41,0.00,,,-99.99,FreeWX 2.04,2014-02-04 22:54:00,
2014-02-04 17:59:00,21.7,2.3,30.24,North,-999,0.0,4.0,42,0.00,,,-99.99,FreeWX 2.04,2014-02-04 22:59:00,
2014-02-04 18:04:00,21.6,1.6,30.24,North,-999,0.0,0.0,41,0.00,,,-99.99,FreeWX 2.04,2014-02-04 23:04:00,
2014-02-04 18:09:00,21.6,2.1,30.24,North,-999,0.0,3.6,42,0.00,,,-99.99,FreeWX 2.04,2014-02-04 23:09:00,
2014-02-04 18:14:00,21.6,2.1,30.24,North,-999,0.0,4.0,42,0.00,,,-99.99,FreeWX 2.04,2014-02-04 23:14:00,
2014-02-04 18:19:00,21.6,2.1,30.24,North,-999,0.0,0.0,42,0.00,,,-99.99,FreeWX 2.04,2014-02-04 23:19:00,
2014-02-04 18:24:00,21.6,2.1,30.24,North,-999,0.0,5.8,42,0.00,,,-99.99,FreeWX 2.04,2014-02-04 23:24:00,
2014-02-04 18:29:00,21.6,2.1,30.24,North,-999,0.0,0.0,42,0.00,,,-99.99,FreeWX 2.04,2014-02-04 23:29:00,
2014-02-04 18:34:00,21.6,2.5,30.24,North,-999,0.0,3.1,43,0.00,,,-99.99,FreeWX 2.04,2014-02-04 23:34:00,
2014-02-04 18:39:00,21.7,2.7,30.24,North,-999,0.0,4.5,43,0.00,,,-99.99,FreeWX 2.04,2014-02-04 23:39:00,
2014-02-04 18:44:00,21.7,2.7,30.24,North,-999,0.0,4.0,43,0.00,,,-99.99,FreeWX 2.04,2014-02-04 23:44:00,
2014-02-04 18:49:00,21.7,2.7,30.24,ENE,70,1.0,5.4,43,0.00,,,-99.99,FreeWX 2.04,2014-02-04 23:49:00,
2014-02-04 18:54:00,21.9,2.8,30.24,North,-999,0.0,0.0,43,0.00,,,-99.99,FreeWX 2.04,2014-02-04 23:54:00,
2014-02-04 18:59:00,21.9,2.8,30.24,North,-999,0.0,4.0,43,0.00,,,-99.99,FreeWX 2.04,2014-02-04 23:59:00,
2014-02-04 19:04:00,21.9,2.8,30.24,North,-999,0.0,5.8,43,0.00,,,-99.99,FreeWX 2.04,2014-02-05 00:04:00,
2014-02-04 19:09:00,21.9,2.8,30.24,North,-999,0.0,5.4,43,0.00,,,-99.99,FreeWX 2.04,2014-02-05 00:09:00,
2014-02-04 19:14:00,21.9,2.8,30.24,ENE,78,1.0,5.8,43,0.00,,,-99.99,FreeWX 2.04,2014-02-05 00:14:00,
2014-02-04 19:19:00,21.9,2.8,30.24,North,-999,0.0,0.0,43,0.00,,,-99.99,FreeWX 2.04,2014-02-05 00:19:00,
2014-02-04 19:24:00,21.9,2.8,30.24,North,-999,0.0,0.0,43,0.00,,,-99.99,FreeWX 2.04,2014-02-05 00:24:00,
2014-02-04 19:29:00,22.1,3.6,30.24,North,-999,0.0,4.9,44,0.00,,,-99.99,FreeWX 2.04,2014-02-05 00:29:00,
2014-02-04 19:34:00,22.1,3.6,30.24,North,-999,0.0,4.9,44,0.00,,,-99.99,FreeWX 2.04,2014-02-05 00:34:00,
2014-02-04 19:39:00,22.1,3.6,30.24,North,-999,0.0,2.7,44,0.00,,,-99.99,FreeWX 2.04,2014-02-05 00:39:00,
2014-02-04 19:44:00,22.1,3.0,30.27,North,-999,0.0,4.5,43,0.00,,,-99.99,FreeWX 2.04,2014-02-05 00:44:00,
2014-02-04 19:49:00,22.1,3.0,30.27,North,-999,0.0,2.7,43,0.00,,,-99.99,FreeWX 2.04,2014-02-05 00:49:00,
2014-02-04 19:54:00,22.1,3.0,30.27,North,-999,0.0,4.0,43,0.00,,,-99.99,FreeWX 2.04,2014-02-05 00:54:00,
2014-02-04 19:59:00,22.1,3.6,30.24,North,-999,0.0,0.0,44,0.00,,,-99.99,FreeWX 2.04,2014-02-05 00:59:00,
2014-02-04 20:04:00,22.1,3.6,30.24,North,-999,0.0,4.0,44,0.00,,,-99.99,FreeWX 2.04,2014-02-05 01:04:00,
2014-02-04 20:09:00,22.3,3.7,30.24,North,-999,0.0,3.6,44,0.00,,,-99.99,FreeWX 2.04,2014-02-05 01:09:00,
2014-02-04 20:14:00,22.3,3.7,30.21,NE,55,1.0,4.5,44,0.00,,,-99.99,FreeWX 2.04,2014-02-05 01:14:00,
2014-02-04 20:19:00,22.3,3.7,30.21,NE,56,1.0,4.0,44,0.00,,,-99.99,FreeWX 2.04,2014-02-05 01:19:00,
2014-02-04 20:24:00,22.3,3.7,30.21,ENE,62,2.0,6.9,44,0.00,,,-99.99,FreeWX 2.04,2014-02-05 01:24:00,
2014-02-04 20:29:00,22.1,3.6,30.21,ENE,65,2.0,6.7,44,0.00,,,-99.99,FreeWX 2.04,2014-02-05 01:29:00,
2014-02-04 20:35:00,22.1,3.6,30.21,ENE,61,1.0,9.2,44,0.00,,,-99.99,FreeWX 2.04,2014-02-05 01:35:00,
2014-02-04 20:40:00,22.1,3.6,30.21,ENE,62,1.0,6.3,44,0.00,,,-99.99,FreeWX 2.04,2014-02-05 01:40:00,
2014-02-04 20:45:00,22.1,3.6,30.21,NE,46,1.0,5.4,44,0.00,,,-99.99,FreeWX 2.04,2014-02-05 01:45:00,
2014-02-04 20:50:00,22.1,3.6,30.21,NE,54,2.0,6.3,44,0.00,,,-99.99,FreeWX 2.04,2014-02-05 01:50:00,
2014-02-04 20:55:00,22.1,4.1,30.21,NE,52,2.0,5.4,45,0.00,,,-99.99,FreeWX 2.04,2014-02-05 01:55:00,
2014-02-04 21:00:00,21.9,3.9,30.21,NE,50,2.0,6.9,45,0.00,,,-99.99,FreeWX 2.04,2014-02-05 02:00:00,
2014-02-04 21:05:00,21.9,3.9,30.21,ENE,62,2.0,5.8,45,0.00,,,-99.99,FreeWX 2.04,2014-02-05 02:05:00,
2014-02-04 21:10:00,21.9,3.9,30.21,ENE,59,1.0,6.7,45,0.00,,,-99.99,FreeWX 2.04,2014-02-05 02:10:00,
2014-02-04 21:15:00,21.7,3.7,30.21,NE,54,1.0,5.8,45,0.00,,,-99.99,FreeWX 2.04,2014-02-05 02:15:00,
2014-02-04 21:20:00,21.7,3.7,30.21,NE,47,2.0,4.9,45,0.00,,,-99.99,FreeWX 2.04,2014-02-05 02:20:00,
2014-02-04 21:25:00,21.7,3.7,30.21,NE,46,2.0,5.8,45,0.00,,,-99.99,FreeWX 2.04,2014-02-05 02:25:00,
2014-02-04 21:30:00,21.7,3.7,30.21,NE,41,1.0,5.8,45,0.00,,,-99.99,FreeWX 2.04,2014-02-05 02:30:00,
2014-02-04 21:35:00,21.7,3.7,30.21,NNE,33,1.0,6.3,45,0.00,,,-99.99,FreeWX 2.04,2014-02-05 02:35:00,